Pagrindinis puslapis
METAR-TAF:

METAR-TAF

Oro uostai :

Homestead, Florida, Jungtinės Amerikos Valstijos

platuma: 25-29N, ilguma: 080-23W, Aukštis: 2 m

Dabartinis oras

Ataskaita buvo paskelbta 1 valandą ir 1 minutes, ne 12:56 UTC
Vėjas 6 kt iš Šiaurės/Šiaurės Vakarų
Temperatūra 17°C
Drėgmė 77%
Slėgis 1021 hPa
Matomumas: 16.1 km
Mažai debesys ne aukštis 5000 ft

METAR: KHST 211256Z AUTO 33006KT 10SM FEW050 17/13 A3014 RMK AO2 SLP210 T01700125

Laikas: 08:57 (13:57 UTC)

Prognozė

Ataskaita buvo paskelbta 5 valandos ir 57 minutes, ne 08:00 UTC
Prognozė galioja nuo 21 metu 08 UTC su 22 metu 14 UTC
Vėjas 9 kt iš Šiaurės Rytų
Matomumas 10 km arba daugiau
Išsisklaidę debesys ne aukštis 6000 ft

TAF: KHST 210800Z 2108/2214 05009KT 9999 SCT060 QNH3003INS TX26/2119Z TN14/2110Z

Orai ataskaitas ir orų prognozės (METAR, TAF).

turimą stotys yra geltonos ir raudonos taškus žemėlapyje.

Perkelti pele per norėdami pamatyti stoties vardą.

Tada spustelėkite, norėdami matyti oro stebėjimo ir prognozės.

Norėdami pakeisti žemėlapį: spustelėkite ant žalios mygtukų su juodo kryžiaus žemyn,; žalią mygtuką su brūkšneliu, jei norite nutolinti; arba žalių rodyklių gretimoms žemėlapius.


METAR-TAF: